Main page
METAR-TAF:

METAR-TAF

Airports :

Leipzig–Altenburg Airport

Altenburg, Germany

latitude: 50-58N, longitude: 012-30E, elevation: 195 m

Current weather observation

The report was made 33 minutes ago, at 00:20 UTC
Wind 5 kt from the South
Temperature 1°C
Humidity 86%
Pressure 1029 hPa
Visibility 10 km or more

METAR: EDAC 240020Z AUTO 19005KT 9999 // NCD 01/M01 Q1029

Time: 01:53 (00:53 UTC)

Forecast

The report was made 7 hours and 48 minutes ago, at 17:05 UTC
Forecast valid from 23 at 18 UTC to 24 at 03 UTC
Wind 6 kt from the West/Southwest
Visibility 10 km or more
no clouds below 1500 m and no cumulonimbus
Becoming
from 23 at 18 UTC to 23 at 20 UTC
Wind 4 kt from the South

TAF: EDAC 231705Z 2318/2403 25006KT CAVOK BECMG 2318/2320 18004KT

Weather observations and forecasts of more than 4000 airports (METAR and TAF reports).

The available stations are represented by yellow and red dots on the map.

Hover mouse over dot to see the name of the station.

Then click to see weather observations and forecasts.

To change the map : click on the green buttons with a black cross to zoom in, on the green button with a dash to zoom out, or on the green arrows for adjacent maps.


METAR-TAF: